PWSweather.com
Personal Weather Stations
Station Observations
WAIROAHB
Wairoa, Northern Hawkes Bay -NZ 4108

WairoaNorthern Hawkes Bay -NZ 4108

Lat: -39.04516934, Lon: 177.4263989

Elevation: 156

Station Type: WS3083

http://wairoa.net/weather/index.htm

Latest ConditionsUpdated 10:30:00 AM GMT+12:12 Monday, Jan 20, 2020
Currently Today's Max Today's Min Today's Average
Temperature 68.4°F20.2°C 68.7°F20.4°C 63.0°F17.2°C 65.0°F18.3°C
Dew Point 60.2°F15.7°C 62.5°F16.9°C 56.9°F13.8°C 60.8°F16.0°C
Winds 7.6 mph S12.2 kmh S 9.2 mph -14.8 kmh - - 5.2 mph 8.4 kmh
Wind Gusts 12.1 mph19.5 kmh 14.5 mph23.3 kmh - -
Humidity 75% 93% 74% 86%
Pressure 29.95 in1014.2 mb 29.95 in1014.2 mb 29.95 in1014.2 mb -
Precipitation - 0.04 in1.0 mm - -
Hour Temp Dew Point Humidity Winds Wind Gusts Pressure Precip Precip Rate Daily Precip Total
10:30 AM 68.4°F20.2°C 60.2°F15.7°C 75% 7.6 mph S12.2 kmh S 12.1 mph19.5 kmh 29.95 in1014.2 mb 0.00 in0.0 mm 0.00 in0.0 mm 0.04 in1.0 mm
10:20 AM 68.5°F20.3°C 59.9°F15.5°C 74% 6.0 mph SSE9.7 kmh SSE 8.3 mph13.4 kmh 29.95 in1014.2 mb 0.00 in0.0 mm 0.00 in0.0 mm 0.04 in1.0 mm
10:10 AM 68.2°F20.1°C 59.6°F15.3°C 74% 5.4 mph SSE8.7 kmh SSE 12.1 mph19.5 kmh 29.95 in1014.2 mb 0.00 in0.0 mm 0.00 in0.0 mm 0.04 in1.0 mm
10:00 AM 68.0°F20.0°C 59.4°F15.2°C 74% 5.4 mph SE8.7 kmh SE 12.1 mph19.5 kmh 29.95 in1014.2 mb 0.00 in0.0 mm 0.00 in0.0 mm 0.04 in1.0 mm
09:50 AM 68.7°F20.4°C 60.1°F15.6°C 74% 7.6 mph SE12.2 kmh SE 10.7 mph17.2 kmh 29.95 in1014.2 mb 0.00 in0.0 mm 0.00 in0.0 mm 0.04 in1.0 mm
09:40 AM 67.6°F19.8°C 59.5°F15.3°C 75% 7.6 mph SSE12.2 kmh SSE 11.4 mph18.3 kmh 29.95 in1014.2 mb 0.00 in0.0 mm 0.00 in0.0 mm 0.04 in1.0 mm
09:30 AM 67.6°F19.8°C 59.5°F15.3°C 75% 8.3 mph S13.4 kmh S 12.1 mph19.5 kmh 29.95 in1014.2 mb 0.00 in0.0 mm 0.00 in0.0 mm 0.04 in1.0 mm
09:20 AM 67.8°F19.9°C 60.4°F15.8°C 77% 3.1 mph SSE5.0 kmh SSE 11.4 mph18.3 kmh 29.95 in1014.2 mb 0.00 in0.0 mm 0.00 in0.0 mm 0.04 in1.0 mm
09:10 AM 68.0°F20.0°C 60.2°F15.7°C 76% 6.9 mph SE11.1 kmh SE 13.6 mph21.9 kmh 29.95 in1014.2 mb 0.00 in0.0 mm 0.00 in0.0 mm 0.04 in1.0 mm
09:00 AM 67.8°F19.9°C 60.4°F15.8°C 77% 9.2 mph SE14.8 kmh SE 13.6 mph21.9 kmh 29.95 in1014.2 mb 0.02 in0.5 mm 0.00 in0.0 mm 0.04 in1.0 mm
08:50 AM 67.6°F19.8°C 60.6°F15.9°C 78% 5.4 mph SSE8.7 kmh SSE 11.4 mph18.3 kmh 29.95 in1014.2 mb 0.02 in0.5 mm 0.00 in0.0 mm 0.04 in1.0 mm
08:40 AM 67.3°F19.6°C 60.2°F15.7°C 78% 6.9 mph SSE11.1 kmh SSE 11.4 mph18.3 kmh 29.95 in1014.2 mb 0.02 in0.5 mm 0.00 in0.0 mm 0.04 in1.0 mm
08:30 AM 67.6°F19.8°C 60.9°F16.1°C 79% 7.6 mph SE12.2 kmh SE 9.8 mph15.8 kmh 29.95 in1014.2 mb 0.02 in0.5 mm 0.00 in0.0 mm 0.04 in1.0 mm
08:20 AM 66.9°F19.4°C 60.6°F15.9°C 80% 8.3 mph SSE13.4 kmh SSE 9.2 mph14.8 kmh 29.95 in1014.2 mb 0.02 in0.5 mm 0.00 in0.0 mm 0.04 in1.0 mm
08:10 AM 66.4°F19.1°C 61.8°F16.6°C 85% 4.5 mph SE7.2 kmh SE 9.2 mph14.8 kmh 29.95 in1014.2 mb 0.04 in1.0 mm 0.18 in4.6 mm 0.04 in1.0 mm
08:00 AM 65.1°F18.4°C 62.5°F16.9°C 91% 3.8 mph SSE6.1 kmh SSE 6.9 mph11.1 kmh 29.95 in1014.2 mb 0.01 in0.3 mm 0.00 in0.0 mm 0.01 in0.3 mm
07:51 AM 63.5°F17.5°C 59.2°F15.1°C 86% 3.8 mph SW6.1 kmh SW 6.0 mph9.7 kmh 29.95 in1014.2 mb 0.01 in0.3 mm 0.00 in0.0 mm 0.01 in0.3 mm
07:40 AM 63.3°F17.4°C 60.7°F15.9°C 91% 3.1 mph SSW5.0 kmh SSW 6.0 mph9.7 kmh 29.95 in1014.2 mb 0.01 in0.3 mm 0.00 in0.0 mm 0.01 in0.3 mm
07:30 AM 63.1°F17.3°C 59.9°F15.5°C 89% 4.5 mph SW7.2 kmh SW 8.3 mph13.4 kmh 29.95 in1014.2 mb 0.01 in0.3 mm 0.06 in1.5 mm 0.01 in0.3 mm
07:20 AM 64.0°F17.8°C 60.1°F15.6°C 87% 6.0 mph SW9.7 kmh SW 7.6 mph12.2 kmh 29.95 in1014.2 mb 0.00 in0.0 mm 0.00 in0.0 mm 0.00 in0.0 mm
07:10 AM 63.7°F17.6°C 60.4°F15.8°C 89% 5.4 mph SW8.7 kmh SW 7.6 mph12.2 kmh 29.95 in1014.2 mb 0.00 in0.0 mm 0.00 in0.0 mm 0.00 in0.0 mm
07:00 AM 63.3°F17.4°C 61.3°F16.3°C 93% 3.1 mph SW5.0 kmh SW 7.6 mph12.2 kmh 29.95 in1014.2 mb 0.00 in0.0 mm 0.00 in0.0 mm 0.00 in0.0 mm
06:50 AM 63.0°F17.2°C 60.9°F16.1°C 93% 5.4 mph SW8.7 kmh SW 8.3 mph13.4 kmh 29.95 in1014.2 mb 0.00 in0.0 mm 0.00 in0.0 mm 0.00 in0.0 mm
06:40 AM 63.5°F17.5°C 60.8°F16.0°C 91% 6.9 mph S11.1 kmh S 6.9 mph11.1 kmh 29.95 in1014.2 mb 0.00 in0.0 mm 0.00 in0.0 mm 0.00 in0.0 mm
06:30 AM 63.3°F17.4°C 60.7°F15.9°C 91% 3.1 mph SSE5.0 kmh SSE 3.8 mph6.1 kmh 29.95 in1014.2 mb 0.00 in0.0 mm 0.00 in0.0 mm 0.00 in0.0 mm
06:20 AM 63.1°F17.3°C 60.2°F15.7°C 90% 1.6 mph ESE2.6 kmh ESE 6.9 mph11.1 kmh 29.95 in1014.2 mb 0.00 in0.0 mm 0.00 in0.0 mm 0.00 in0.0 mm
06:10 AM 63.7°F17.6°C 58.4°F14.7°C 83% 5.4 mph SE8.7 kmh SE 9.8 mph15.8 kmh 29.95 in1014.2 mb 0.00 in0.0 mm 0.00 in0.0 mm 0.00 in0.0 mm
06:00 AM 63.5°F17.5°C 56.9°F13.8°C 79% 3.8 mph S6.1 kmh S 11.4 mph18.3 kmh 29.95 in1014.2 mb 0.00 in0.0 mm 0.00 in0.0 mm 0.00 in0.0 mm
05:50 AM 63.1°F17.3°C 59.5°F15.3°C 88% 9.2 mph S14.8 kmh S 13.0 mph20.9 kmh 29.95 in1014.2 mb 0.00 in0.0 mm 0.00 in0.0 mm 0.00 in0.0 mm
05:40 AM 63.7°F17.6°C 60.1°F15.6°C 88% 4.5 mph S7.2 kmh S 8.3 mph13.4 kmh 29.95 in1014.2 mb 0.00 in0.0 mm 0.00 in0.0 mm 0.00 in0.0 mm
05:30 AM 63.5°F17.5°C 59.9°F15.5°C 88% 4.5 mph S7.2 kmh S 11.4 mph18.3 kmh 29.95 in1014.2 mb 0.00 in0.0 mm 0.00 in0.0 mm 0.00 in0.0 mm
05:20 AM 63.7°F17.6°C 59.8°F15.4°C 87% 6.9 mph S11.1 kmh S 11.4 mph18.3 kmh 29.95 in1014.2 mb 0.00 in0.0 mm 0.00 in0.0 mm 0.00 in0.0 mm
05:10 AM 63.9°F17.7°C 59.9°F15.5°C 87% 5.4 mph S8.7 kmh S 9.2 mph14.8 kmh 29.95 in1014.2 mb 0.00 in0.0 mm 0.00 in0.0 mm 0.00 in0.0 mm
05:00 AM 64.6°F18.1°C 60.6°F15.9°C 87% 3.8 mph S6.1 kmh S 9.8 mph15.8 kmh 29.95 in1014.2 mb 0.00 in0.0 mm 0.00 in0.0 mm 0.00 in0.0 mm
04:50 AM 64.6°F18.1°C 60.6°F15.9°C 87% 6.0 mph SSW9.7 kmh SSW 9.8 mph15.8 kmh 29.95 in1014.2 mb 0.00 in0.0 mm 0.00 in0.0 mm 0.00 in0.0 mm
04:40 AM 64.4°F18.0°C 60.8°F16.0°C 88% 7.6 mph SSW12.2 kmh SSW 10.7 mph17.2 kmh 29.95 in1014.2 mb 0.00 in0.0 mm 0.00 in0.0 mm 0.00 in0.0 mm
04:30 AM 64.4°F18.0°C 61.1°F16.2°C 89% 5.4 mph S8.7 kmh S 7.6 mph12.2 kmh 29.95 in1014.2 mb 0.00 in0.0 mm 0.00 in0.0 mm 0.00 in0.0 mm
04:20 AM 64.2°F17.9°C 61.2°F16.2°C 90% 5.4 mph S8.7 kmh S 7.6 mph12.2 kmh 29.95 in1014.2 mb 0.00 in0.0 mm 0.00 in0.0 mm 0.00 in0.0 mm
04:10 AM 64.0°F17.8°C 60.8°F16.0°C 89% 5.4 mph SSW8.7 kmh SSW 6.0 mph9.7 kmh 29.95 in1014.2 mb 0.00 in0.0 mm 0.00 in0.0 mm 0.00 in0.0 mm
04:00 AM 64.0°F17.8°C 60.4°F15.8°C 88% 4.5 mph S7.2 kmh S 6.0 mph9.7 kmh 29.95 in1014.2 mb 0.00 in0.0 mm 0.00 in0.0 mm 0.00 in0.0 mm
03:50 AM 64.0°F17.8°C 60.4°F15.8°C 88% 3.8 mph S6.1 kmh S 6.0 mph9.7 kmh 29.95 in1014.2 mb 0.00 in0.0 mm 0.00 in0.0 mm 0.00 in0.0 mm
03:40 AM 64.0°F17.8°C 60.8°F16.0°C 89% 3.8 mph SSW6.1 kmh SSW 6.9 mph11.1 kmh 29.95 in1014.2 mb 0.00 in0.0 mm 0.00 in0.0 mm 0.00 in0.0 mm
03:30 AM 64.0°F17.8°C 60.8°F16.0°C 89% 3.8 mph S6.1 kmh S 6.9 mph11.1 kmh 29.95 in1014.2 mb 0.00 in0.0 mm 0.00 in0.0 mm 0.00 in0.0 mm
03:20 AM 64.2°F17.9°C 61.6°F16.4°C 91% 5.4 mph S8.7 kmh S 7.6 mph12.2 kmh 29.95 in1014.2 mb 0.00 in0.0 mm 0.00 in0.0 mm 0.00 in0.0 mm
03:10 AM 64.4°F18.0°C 62.0°F16.7°C 92% 5.4 mph SSW8.7 kmh SSW 7.6 mph12.2 kmh 29.95 in1014.2 mb 0.00 in0.0 mm 0.00 in0.0 mm 0.00 in0.0 mm
03:00 AM 64.2°F17.9°C 61.9°F16.6°C 92% 3.8 mph SSW6.1 kmh SSW 7.6 mph12.2 kmh 29.95 in1014.2 mb 0.00 in0.0 mm 0.00 in0.0 mm 0.00 in0.0 mm
02:50 AM 64.4°F18.0°C 62.0°F16.7°C 92% 5.4 mph S8.7 kmh S 10.7 mph17.2 kmh 29.95 in1014.2 mb 0.00 in0.0 mm 0.00 in0.0 mm 0.00 in0.0 mm
02:40 AM 64.8°F18.2°C 62.1°F16.7°C 91% 6.9 mph SSW11.1 kmh SSW 14.5 mph23.3 kmh 29.95 in1014.2 mb 0.00 in0.0 mm 0.00 in0.0 mm 0.00 in0.0 mm
02:30 AM 64.8°F18.2°C 61.8°F16.6°C 90% 6.9 mph SW11.1 kmh SW 9.8 mph15.8 kmh 29.95 in1014.2 mb 0.00 in0.0 mm 0.00 in0.0 mm 0.00 in0.0 mm
02:20 AM 64.8°F18.2°C 61.8°F16.6°C 90% 3.1 mph S5.0 kmh S 7.6 mph12.2 kmh 29.95 in1014.2 mb 0.00 in0.0 mm 0.00 in0.0 mm 0.00 in0.0 mm
02:10 AM 64.9°F18.3°C 61.6°F16.4°C 89% 4.5 mph SSW7.2 kmh SSW 8.3 mph13.4 kmh 29.95 in1014.2 mb 0.00 in0.0 mm 0.00 in0.0 mm 0.00 in0.0 mm
02:00 AM 64.9°F18.3°C 62.0°F16.7°C 90% 6.0 mph S9.7 kmh S 9.2 mph14.8 kmh 29.95 in1014.2 mb 0.00 in0.0 mm 0.00 in0.0 mm 0.00 in0.0 mm
01:50 AM 64.9°F18.3°C 62.0°F16.7°C 90% 5.4 mph SSW8.7 kmh SSW 7.6 mph12.2 kmh 29.95 in1014.2 mb 0.00 in0.0 mm 0.00 in0.0 mm 0.00 in0.0 mm
01:40 AM 64.9°F18.3°C 62.0°F16.7°C 90% 5.4 mph S8.7 kmh S 6.9 mph11.1 kmh 29.95 in1014.2 mb 0.00 in0.0 mm 0.00 in0.0 mm 0.00 in0.0 mm
01:30 AM 64.9°F18.3°C 61.6°F16.4°C 89% 3.8 mph S6.1 kmh S 7.6 mph12.2 kmh 29.95 in1014.2 mb 0.00 in0.0 mm 0.00 in0.0 mm 0.00 in0.0 mm
01:20 AM 64.9°F18.3°C 62.0°F16.7°C 90% 4.5 mph S7.2 kmh S 6.9 mph11.1 kmh 29.95 in1014.2 mb 0.00 in0.0 mm 0.00 in0.0 mm 0.00 in0.0 mm
01:10 AM 64.9°F18.3°C 62.0°F16.7°C 90% 4.5 mph S7.2 kmh S 7.6 mph12.2 kmh 29.95 in1014.2 mb 0.00 in0.0 mm 0.00 in0.0 mm 0.00 in0.0 mm
01:00 AM 64.9°F18.3°C 62.0°F16.7°C 90% 4.5 mph S7.2 kmh S 7.6 mph12.2 kmh 29.95 in1014.2 mb 0.00 in0.0 mm 0.00 in0.0 mm 0.00 in0.0 mm
12:50 AM 64.9°F18.3°C 61.6°F16.4°C 89% 6.0 mph S9.7 kmh S 8.3 mph13.4 kmh 29.95 in1014.2 mb 0.00 in0.0 mm 0.00 in0.0 mm 0.00 in0.0 mm
12:40 AM 64.8°F18.2°C 61.5°F16.4°C 89% 3.8 mph S6.1 kmh S 6.0 mph9.7 kmh 29.95 in1014.2 mb 0.00 in0.0 mm 0.00 in0.0 mm 0.00 in0.0 mm
12:30 AM 64.8°F18.2°C 61.8°F16.6°C 90% 3.1 mph S5.0 kmh S 6.0 mph9.7 kmh 29.95 in1014.2 mb 0.00 in0.0 mm 0.00 in0.0 mm 0.00 in0.0 mm
12:20 AM 64.8°F18.2°C 62.1°F16.7°C 91% 3.8 mph S6.1 kmh S 6.0 mph9.7 kmh 29.95 in1014.2 mb 0.00 in0.0 mm 0.00 in0.0 mm 0.00 in0.0 mm
12:10 AM 64.6°F18.1°C 62.5°F16.9°C 93% 3.8 mph S6.1 kmh S 6.9 mph11.1 kmh 29.95 in1014.2 mb 0.00 in0.0 mm 0.00 in0.0 mm 0.00 in0.0 mm
12:00 AM 64.6°F18.1°C 62.5°F16.9°C 93% 3.1 mph S5.0 kmh S 5.4 mph8.7 kmh 29.95 in1014.2 mb 0.00 in0.0 mm 0.00 in0.0 mm 0.00 in0.0 mm